Time;durP1;ratioP1;P1;durP2;ratioP2;P2;SDS_P1;SDS_P2;PMS_P1;PMS_P2;Temp;Humidity;BMP_temperature;BMP_pressure;BME280_temperature;BME280_humidity;BME280_pressure;Samples;Min_cycle;Max_cycle;Signal;HPM_P1;HPM_P2
2022/05/21 00:00:31;;;;;;;;;;;;;;;22.24;37.53;95585.16;2065157;28;1638;-60
2022/05/21 00:01:34;;;;;;;;;;;;;;;22.24;37.63;95584.34;2065848;28;1260;-60
2022/05/21 00:02:37;;;;;;;;;;;;;;;22.25;37.47;95585.97;2065076;28;1379;-58
2022/05/21 00:03:40;;;;;;;;;;;;;;;22.25;37.48;95583.28;2065290;28;1691;-59
2022/05/21 00:04:42;;;;;;;;;;;;;;;22.25;37.51;95594.00;2060545;28;1510;-59
2022/05/21 00:05:46;;;;;;;;;;;;;;;22.25;37.82;95589.50;2063708;28;1623;-59
2022/05/21 00:06:47;;;;;;;;;;;;;;;22.25;37.56;95594.00;2064898;28;1993;-61
2022/05/21 00:07:51;;;;;;;;;;;;;;;22.24;37.59;95587.00;2066053;28;1022;-59
2022/05/21 00:08:53;;;;;;;;;;;;;;;22.22;37.43;95586.38;2057716;28;1605;-62
2022/05/21 00:09:56;;;;;;;;;;;;;;;22.26;37.29;95590.31;2064523;28;1221;-58
2022/05/21 00:10:58;;;;;;;;;;;;;;;22.25;37.35;95589.50;2065949;28;1005;-58
2022/05/21 00:12:01;;;;;;;;;;;;;;;22.26;37.41;95591.13;2064950;28;1581;-59
2022/05/21 00:13:03;;;;;;;;;;;;;;;22.25;37.43;95588.66;2065800;28;1141;-59
2022/05/21 00:14:05;;;;;;;;;;;;;;;22.26;37.50;95584.97;2065011;28;1456;-59
2022/05/21 00:15:10;;;;;;;;;;;;;;;22.26;37.20;95584.97;2064321;28;1581;-59
2022/05/21 00:16:12;;;;;;;;;;;;;;;22.25;37.32;95584.13;2065659;28;1237;-59
2022/05/21 00:17:15;;;;;;;;;;;;;;;22.25;37.24;95586.81;2064897;28;1513;-59
2022/05/21 00:18:19;;;;;;;;;;;;;;;22.26;37.69;95584.97;2064952;28;1728;-59
2022/05/21 00:19:22;;;;;;;;;;;;;;;22.25;37.72;95580.63;2064767;28;1896;-59
2022/05/21 00:21:45;;;;;;;;;;;;;;;22.25;37.46;95586.81;2064858;28;1649;-59
2022/05/21 00:22:46;;;;;;;;;;;;;;;22.27;37.64;95581.25;2065746;28;2016;-60
2022/05/21 00:23:49;;;;;;;;;;;;;;;22.25;37.50;95584.13;2064009;28;1593;-59
2022/05/21 00:24:51;;;;;;;;;;;;;;;22.26;37.63;95577.75;2065817;28;1011;-59
2022/05/21 00:25:57;;;;;;;;;;;;;;;22.26;37.75;95576.94;2065777;28;1009;-59
2022/05/21 00:26:59;;;;;;;;;;;;;;;22.26;37.29;95584.97;2064441;28;1980;-58
2022/05/21 00:28:02;;;;;;;;;;;;;;;22.27;37.50;95581.25;2065704;28;1167;-59
2022/05/21 00:29:05;;;;;;;;;;;;;;;22.26;37.60;95576.94;2064615;28;1618;-58
2022/05/21 00:30:07;;;;;;;;;;;;;;;22.26;37.30;95575.06;2064847;28;1781;-60
2022/05/21 00:31:11;;;;;;;;;;;;;;;22.25;37.35;95577.94;2060236;28;1613;-59
2022/05/21 00:32:14;;;;;;;;;;;;;;;22.25;37.45;95573.44;2060793;28;1373;-58
2022/05/21 00:33:19;;;;;;;;;;;;;;;22.25;37.45;95569.91;2064936;28;1527;-59
2022/05/21 00:34:21;;;;;;;;;;;;;;;22.26;37.47;95568.91;2064549;28;1705;-59
2022/05/21 00:35:24;;;;;;;;;;;;;;;22.24;37.48;95561.06;2063483;28;1556;-59
2022/05/21 00:36:27;;;;;;;;;;;;;;;22.25;37.74;95567.22;2065417;28;1116;-59
2022/05/21 00:37:29;;;;;;;;;;;;;;;22.24;37.81;95565.59;2064835;28;1527;-59
2022/05/21 00:38:32;;;;;;;;;;;;;;;22.25;37.60;95561.88;2063528;28;1619;-61
2022/05/21 00:39:34;;;;;;;;;;;;;;;22.26;37.43;95560.88;2060411;28;1044;-59
2022/05/21 00:40:37;;;;;;;;;;;;;;;22.26;37.50;95564.34;2066276;28;1471;-58
2022/05/21 00:41:40;;;;;;;;;;;;;;;22.27;37.46;95559.81;2068075;28;1053;-61
2022/05/21 00:42:42;;;;;;;;;;;;;;;22.27;37.46;95559.81;2063034;28;1192;-61
2022/05/21 00:43:47;;;;;;;;;;;;;;;22.25;37.58;95567.22;2064550;28;1620;-58
2022/05/21 00:44:49;;;;;;;;;;;;;;;22.20;37.61;95559.84;2067259;28;1566;-59
2022/05/21 00:45:51;;;;;;;;;;;;;;;22.18;37.71;95558.41;2066895;28;1526;-64
2022/05/21 00:46:54;;;;;;;;;;;;;;;22.16;37.72;95563.13;2067496;28;1554;-58
2022/05/21 00:47:56;;;;;;;;;;;;;;;22.16;37.51;95557.78;2067411;28;1454;-59
2022/05/21 00:49:03;;;;;;;;;;;;;;;22.13;37.93;95559.84;2066078;28;1621;-58
2022/05/21 00:50:08;;;;;;;;;;;;;;;22.15;37.71;95561.50;2066273;28;1531;-60
2022/05/21 00:51:13;;;;;;;;;;;;;;;22.12;37.71;95560.06;2067140;28;1542;-60
2022/05/21 00:52:17;;;;;;;;;;;;;;;22.12;37.98;95560.88;2068373;28;926;-59
2022/05/21 00:53:21;;;;;;;;;;;;;;;22.13;37.79;95559.00;2066866;28;1694;-58
2022/05/21 00:54:25;;;;;;;;;;;;;;;22.14;38.04;95552.66;2059827;28;1297;-58
2022/05/21 00:55:30;;;;;;;;;;;;;;;22.11;37.96;95545.84;2067466;28;1569;-58
2022/05/21 00:56:35;;;;;;;;;;;;;;;22.17;37.92;95556.75;2067608;28;1505;-58
2022/05/21 00:57:39;;;;;;;;;;;;;;;22.15;38.20;95556.97;2066556;28;1633;-58
2022/05/21 01:00:05;;;;;;;;;;;;;;;22.13;37.36;95542.97;2067655;28;1513;-59
2022/05/21 01:01:07;;;;;;;;;;;;;;;22.12;36.97;95552.03;2067286;28;1646;-58
2022/05/21 01:02:10;;;;;;;;;;;;;;;22.10;37.37;95544.19;2064850;28;1820;-59
2022/05/21 01:03:13;;;;;;;;;;;;;;;22.10;37.63;95549.53;2060762;28;1525;-59
2022/05/21 01:04:17;;;;;;;;;;;;;;;22.09;37.55;95539.88;2064224;28;1748;-58
2022/05/21 01:05:20;;;;;;;;;;;;;;;22.10;37.61;95546.06;2060628;28;1971;-60
2022/05/21 01:06:23;;;;;;;;;;;;;;;22.10;37.80;95540.69;2063450;28;1093;-58
2022/05/21 01:07:25;;;;;;;;;;;;;;;22.09;37.79;95531.84;2065052;28;1973;-58
2022/05/21 01:08:28;;;;;;;;;;;;;;;22.10;37.72;95541.53;2068276;28;1112;-58
2022/05/21 01:09:31;;;;;;;;;;;;;;;22.10;37.67;95540.69;2064150;28;1703;-59
2022/05/21 01:10:37;;;;;;;;;;;;;;;22.09;37.58;95536.38;2064078;28;1621;-60
2022/05/21 01:11:39;;;;;;;;;;;;;;;22.09;37.77;95537.22;2067506;28;1498;-60
2022/05/21 01:12:45;;;;;;;;;;;;;;;22.09;37.85;95537.22;2068170;28;1013;-60
2022/05/21 01:13:48;;;;;;;;;;;;;;;22.09;37.69;95537.22;2067766;28;1500;-60
2022/05/21 01:14:52;;;;;;;;;;;;;;;22.09;37.65;95533.72;2067950;28;1156;-60
2022/05/21 01:15:54;;;;;;;;;;;;;;;22.09;37.84;95529.19;2067487;28;1612;-60
2022/05/21 01:16:56;;;;;;;;;;;;;;;22.09;37.56;95531.84;2058391;28;1565;-60
2022/05/21 01:18:05;;;;;;;;;;;;;;;22.08;37.79;95540.94;2066348;28;1774;-61
2022/05/21 01:19:08;;;;;;;;;;;;;;;22.08;37.81;95530.22;2067643;28;1689;-60
2022/05/21 01:20:13;;;;;;;;;;;;;;;22.08;37.55;95524.88;2067390;28;1664;-60
2022/05/21 01:21:16;;;;;;;;;;;;;;;22.09;37.89;95531.03;2068457;28;1069;-60
2022/05/21 01:22:18;;;;;;;;;;;;;;;22.08;37.67;95535.56;2067592;28;1694;-60
2022/05/21 01:23:22;;;;;;;;;;;;;;;22.09;37.88;95536.38;2067437;28;1589;-61
2022/05/21 01:24:25;;;;;;;;;;;;;;;22.08;37.69;95542.75;2067484;28;1706;-60
2022/05/21 01:25:29;;;;;;;;;;;;;;;22.10;37.77;95543.38;2066936;28;1550;-61
2022/05/21 01:26:32;;;;;;;;;;;;;;;22.10;37.94;95540.69;2067477;28;1799;-59
2022/05/21 01:27:34;;;;;;;;;;;;;;;22.09;37.86;95541.75;2064061;28;2001;-59
2022/05/21 01:28:37;;;;;;;;;;;;;;;22.10;38.18;95549.53;2063170;28;1205;-61
2022/05/21 01:29:39;;;;;;;;;;;;;;;22.11;38.16;95551.22;2066560;28;1461;-61
2022/05/21 01:30:44;;;;;;;;;;;;;;;22.10;37.95;95548.72;2067964;28;1144;-61
2022/05/21 01:31:49;;;;;;;;;;;;;;;22.09;37.70;95544.41;2067061;28;1556;-60
2022/05/21 01:32:52;;;;;;;;;;;;;;;22.08;37.88;95545.44;2063825;28;827;-60
2022/05/21 01:33:54;;;;;;;;;;;;;;;22.05;37.69;95546.69;2060088;28;1101;-60
2022/05/21 01:34:57;;;;;;;;;;;;;;;22.05;37.74;95546.69;2063681;28;1665;-60
2022/05/21 01:35:59;;;;;;;;;;;;;;;22.05;37.69;95544.03;2066740;28;1683;-60
2022/05/21 01:37:02;;;;;;;;;;;;;;;22.04;37.71;95547.72;2067316;28;1532;-60
2022/05/21 01:38:04;;;;;;;;;;;;;;;22.04;37.64;95533.50;2067688;28;1892;-60
2022/05/21 01:39:08;;;;;;;;;;;;;;;22.04;37.63;95528.97;2062387;28;1601;-60
2022/05/21 01:40:10;;;;;;;;;;;;;;;22.03;37.34;95530.00;2062282;28;1716;-59
2022/05/21 01:41:13;;;;;;;;;;;;;;;22.02;37.31;95536.38;2066206;28;1621;-60
2022/05/21 01:42:16;;;;;;;;;;;;;;;22.02;37.19;95533.72;2065900;28;1759;-60
2022/05/21 01:44:39;;;;;;;;;;;;;;;22.01;37.39;95521.38;2067521;28;1572;-60
2022/05/21 01:45:40;;;;;;;;;;;;;;;22.02;37.35;95530.22;2067969;28;1034;-60
2022/05/21 01:46:43;;;;;;;;;;;;;;;22.01;37.21;95532.06;2066434;28;1449;-59
2022/05/21 01:47:45;;;;;;;;;;;;;;;22.00;37.19;95533.13;2065246;28;1525;-59
2022/05/21 01:48:48;;;;;;;;;;;;;;;22.01;37.20;95544.63;2066465;28;1906;-59
2022/05/21 01:49:51;;;;;;;;;;;;;;;22.01;37.06;95533.94;2062407;28;1547;-62
2022/05/21 01:50:55;;;;;;;;;;;;;;;22.02;36.93;95536.38;2057524;28;1614;-60
2022/05/21 01:51:58;;;;;;;;;;;;;;;22.02;36.86;95538.25;2060128;28;1551;-60
2022/05/21 01:52:59;;;;;;;;;;;;;;;22.01;36.80;95545.44;2066226;28;1692;-61
2022/05/21 01:54:02;;;;;;;;;;;;;;;22.01;36.97;95545.44;2065273;28;1633;-60
2022/05/21 01:55:06;;;;;;;;;;;;;;;22.02;37.06;95540.91;2065588;28;1667;-60
2022/05/21 01:56:10;;;;;;;;;;;;;;;22.02;37.06;95539.06;2066492;28;1125;-61
2022/05/21 01:57:13;;;;;;;;;;;;;;;22.02;37.11;95540.91;2065399;28;1634;-61
2022/05/21 01:58:15;;;;;;;;;;;;;;;22.02;37.11;95540.91;2066019;28;1495;-61
2022/05/21 01:59:18;;;;;;;;;;;;;;;22.00;37.09;95535.78;2063204;28;1410;-61
2022/05/21 02:00:20;;;;;;;;;;;;;;;22.01;37.19;95540.09;2059608;28;1584;-61
2022/05/21 02:01:23;;;;;;;;;;;;;;;22.01;36.84;95534.75;2065946;28;1581;-61
2022/05/21 02:02:25;;;;;;;;;;;;;;;22.01;37.23;95528.56;2052672;28;1737;-60
2022/05/21 02:03:28;;;;;;;;;;;;;;;22.00;37.07;95527.75;2065119;28;1321;-60
2022/05/21 02:04:31;;;;;;;;;;;;;;;22.02;37.32;95520.31;2058743;28;1049;-60
2022/05/21 02:05:33;;;;;;;;;;;;;;;22.02;37.31;95524.84;2062829;28;1660;-60
2022/05/21 02:06:36;;;;;;;;;;;;;;;22.04;37.14;95534.31;2065081;28;1605;-60
2022/05/21 02:07:37;;;;;;;;;;;;;;;22.04;37.28;95526.31;2066375;28;1051;-60
2022/05/21 02:08:40;;;;;;;;;;;;;;;22.04;37.39;95528.97;2066591;28;1985;-59
2022/05/21 02:09:42;;;;;;;;;;;;;;;22.03;37.56;95522.00;2065588;28;1565;-63
2022/05/21 02:10:47;;;;;;;;;;;;;;;22.03;37.19;95522.00;2062101;28;1662;-61
2022/05/21 02:11:48;;;;;;;;;;;;;;;22.03;37.23;95511.28;2060505;28;1636;-62
2022/05/21 02:12:51;;;;;;;;;;;;;;;22.03;37.36;95522.00;2065198;28;1590;-60
2022/05/21 02:13:55;;;;;;;;;;;;;;;22.03;37.40;95513.16;2059024;28;1180;-62
2022/05/21 02:14:57;;;;;;;;;;;;;;;22.02;37.45;95514.97;2066334;28;2092;-63
2022/05/21 02:16:00;;;;;;;;;;;;;;;22.02;37.31;95509.63;2065236;28;1735;-62
2022/05/21 02:17:02;;;;;;;;;;;;;;;22.02;37.50;95506.94;2065484;28;1649;-61
2022/05/21 02:18:05;;;;;;;;;;;;;;;22.03;37.26;95507.78;2065018;28;1576;-62
2022/05/21 02:19:07;;;;;;;;;;;;;;;22.02;37.58;95508.81;2066551;28;1113;-61
2022/05/21 02:20:11;;;;;;;;;;;;;;;22.02;37.60;95509.63;2065041;28;1639;-74
2022/05/21 02:21:12;;;;;;;;;;;;;;;22.01;37.59;95513.34;2065927;28;1554;-61
2022/05/21 02:22:15;;;;;;;;;;;;;;;22.02;37.57;95514.16;2064765;28;1591;-61
2022/05/21 02:23:17;;;;;;;;;;;;;;;22.01;37.53;95504.50;2065943;28;1606;-61
2022/05/21 02:24:20;;;;;;;;;;;;;;;22.02;37.55;95511.47;2055161;28;1053;-59
2022/05/21 02:25:22;;;;;;;;;;;;;;;22.02;37.58;95511.47;2052939;28;1080;-60
2022/05/21 02:26:26;;;;;;;;;;;;;;;22.01;37.56;95513.34;2058222;28;1077;-62
2022/05/21 02:27:28;;;;;;;;;;;;;;;22.01;37.64;95512.53;2065990;28;1671;-62
2022/05/21 02:28:31;;;;;;;;;;;;;;;22.01;37.69;95501.81;2065782;28;1981;-61
2022/05/21 02:29:33;;;;;;;;;;;;;;;22.01;37.73;95502.63;2065068;28;1625;-62
2022/05/21 02:30:37;;;;;;;;;;;;;;;22.01;37.57;95515.19;2065620;28;1527;-62
2022/05/21 02:31:39;;;;;;;;;;;;;;;22.01;37.63;95507.16;2065375;28;1614;-61
2022/05/21 02:32:41;;;;;;;;;;;;;;;22.01;37.82;95505.31;2065362;28;1460;-62
2022/05/21 02:33:43;;;;;;;;;;;;;;;22.01;37.84;95501.81;2066570;28;1268;-63
2022/05/21 02:34:46;;;;;;;;;;;;;;;22.01;37.80;95502.63;2059986;28;1689;-62
2022/05/21 02:35:48;;;;;;;;;;;;;;;22.01;37.83;95502.63;2059541;28;1483;-60
2022/05/21 02:39:31;;;;;;;;;;;;;;;22.00;37.92;95503.69;2064053;28;1603;-63
2022/05/21 02:40:33;;;;;;;;;;;;;;;22.00;37.82;95509.03;2064357;28;1656;-60
2022/05/21 02:41:37;;;;;;;;;;;;;;;22.01;38.07;95504.50;2065168;28;1626;-60
2022/05/21 02:42:45;;;;;;;;;;;;;;;21.99;37.86;95499.34;2065219;28;1877;-60
2022/05/21 02:43:49;;;;;;;;;;;;;;;22.00;37.98;95501.00;2065958;28;1714;-60
2022/05/21 02:44:50;;;;;;;;;;;;;;;21.99;38.09;95504.69;2066410;28;1021;-60
2022/05/21 02:45:53;;;;;;;;;;;;;;;21.99;38.10;95499.34;2066508;28;1093;-60
2022/05/21 02:46:55;;;;;;;;;;;;;;;22.00;37.87;95501.00;2060381;28;1619;-60
2022/05/21 02:47:58;;;;;;;;;;;;;;;21.99;37.98;95495.84;2060783;28;1621;-61
2022/05/21 02:49:00;;;;;;;;;;;;;;;21.98;38.25;95497.69;2066171;28;1915;-61
2022/05/21 02:50:03;;;;;;;;;;;;;;;22.00;38.10;95492.16;2066403;28;1268;-60
2022/05/21 02:51:05;;;;;;;;;;;;;;;21.99;37.84;95493.97;2065309;28;1621;-60
2022/05/21 02:52:08;;;;;;;;;;;;;;;21.99;38.13;95493.97;2066327;28;1353;-60
2022/05/21 02:53:13;;;;;;;;;;;;;;;21.99;38.05;95493.97;2065793;28;1466;-60
2022/05/21 02:54:17;;;;;;;;;;;;;;;21.99;37.91;95499.34;2064428;28;1530;-60
2022/05/21 02:55:20;;;;;;;;;;;;;;;22.00;38.18;95506.34;2058520;28;1496;-61
2022/05/21 02:56:23;;;;;;;;;;;;;;;22.00;38.04;95501.00;2058070;28;1033;-61
2022/05/21 02:57:26;;;;;;;;;;;;;;;21.99;38.03;95504.69;2065222;28;1470;-62
2022/05/21 02:58:29;;;;;;;;;;;;;;;21.99;38.26;95507.38;2061578;28;1612;-60
2022/05/21 02:59:31;;;;;;;;;;;;;;;21.99;38.28;95502.00;2059190;28;2017;-61
2022/05/21 03:00:34;;;;;;;;;;;;;;;21.99;38.18;95504.69;2065502;28;1582;-61
2022/05/21 03:01:36;;;;;;;;;;;;;;;21.99;38.26;95504.69;2064902;28;1723;-61
2022/05/21 03:02:39;;;;;;;;;;;;;;;22.00;38.14;95506.34;2064641;28;1550;-62
2022/05/21 03:03:42;;;;;;;;;;;;;;;21.98;38.28;95504.91;2066220;28;1563;-62
2022/05/21 03:04:44;;;;;;;;;;;;;;;21.98;38.21;95508.41;2065902;28;1156;-62
2022/05/21 03:05:46;;;;;;;;;;;;;;;21.99;38.43;95510.03;2065680;28;1664;-62
2022/05/21 03:06:48;;;;;;;;;;;;;;;22.00;38.24;95510.88;2064790;28;1622;-62
2022/05/21 03:07:52;;;;;;;;;;;;;;;21.99;38.26;95509.22;2065496;28;2285;-62
2022/05/21 03:10:23;;;;;;;;;;;;;;;21.99;38.57;95520.75;2052154;28;1498;-64
2022/05/21 03:11:25;;;;;;;;;;;;;;;21.98;38.50;95519.09;2057905;28;1474;-62
2022/05/21 03:12:29;;;;;;;;;;;;;;;21.98;38.38;95520.97;2065359;28;1733;-62
2022/05/21 03:13:32;;;;;;;;;;;;;;;21.98;38.38;95523.66;2066325;28;1031;-63
2022/05/21 03:14:35;;;;;;;;;;;;;;;21.99;38.46;95522.59;2065377;28;1422;-62
2022/05/21 03:15:38;;;;;;;;;;;;;;;21.99;38.33;95527.94;2064505;28;1837;-62
2022/05/21 03:16:41;;;;;;;;;;;;;;;21.99;38.54;95528.78;2064550;28;1554;-61
2022/05/21 03:17:43;;;;;;;;;;;;;;;22.01;38.39;95531.25;2062272;28;1548;-61
2022/05/21 03:18:46;;;;;;;;;;;;;;;21.99;38.76;95527.94;2060409;28;2054;-60
2022/05/21 03:19:47;;;;;;;;;;;;;;;22.00;38.60;95527.75;2062007;28;1571;-61
2022/05/21 03:20:50;;;;;;;;;;;;;;;22.00;38.59;95526.94;2056773;28;1129;-59
2022/05/21 03:21:52;;;;;;;;;;;;;;;21.99;38.52;95518.06;2055150;28;1707;-61
2022/05/21 03:22:55;;;;;;;;;;;;;;;21.99;38.48;95523.41;2065722;28;1292;-61
2022/05/21 03:23:58;;;;;;;;;;;;;;;21.99;38.49;95520.75;2064870;28;1573;-61
2022/05/21 03:25:01;;;;;;;;;;;;;;;22.00;38.62;95518.91;2065921;28;1037;-61
2022/05/21 03:26:03;;;;;;;;;;;;;;;21.99;38.55;95518.06;2065954;28;1175;-60
2022/05/21 03:27:07;;;;;;;;;;;;;;;21.99;38.46;95518.06;2064467;28;1605;-61
2022/05/21 03:28:14;;;;;;;;;;;;;;;21.98;38.70;95513.75;2066001;28;1175;-61
2022/05/21 03:29:17;;;;;;;;;;;;;;;21.99;38.55;95515.38;2065644;28;1534;-60
2022/05/21 03:30:21;;;;;;;;;;;;;;;21.99;38.52;95515.38;2064344;28;1910;-60
2022/05/21 03:31:24;;;;;;;;;;;;;;;21.99;38.59;95522.59;2065613;28;1942;-60
2022/05/21 03:32:26;;;;;;;;;;;;;;;21.98;38.78;95519.09;2060308;28;1652;-61
2022/05/21 03:33:29;;;;;;;;;;;;;;;21.99;38.58;95519.94;2059695;28;1761;-61
2022/05/21 03:34:30;;;;;;;;;;;;;;;21.99;38.91;95509.22;2057776;28;1132;-60
2022/05/21 03:35:33;;;;;;;;;;;;;;;21.99;38.66;95510.03;2059656;28;1699;-61
2022/05/21 03:36:36;;;;;;;;;;;;;;;21.99;38.95;95509.22;2064255;28;1518;-59
2022/05/21 03:37:38;;;;;;;;;;;;;;;21.99;38.86;95511.91;2065400;28;2554;-61
2022/05/21 03:38:41;;;;;;;;;;;;;;;21.98;38.80;95508.41;2064581;28;2080;-61
2022/05/21 03:39:43;;;;;;;;;;;;;;;21.99;38.85;95510.03;2065812;28;1160;-60
2022/05/21 03:40:46;;;;;;;;;;;;;;;22.00;38.77;95508.22;2063286;28;1680;-62
2022/05/21 03:41:48;;;;;;;;;;;;;;;21.99;38.79;95510.03;2065513;28;1585;-62
2022/05/21 03:42:51;;;;;;;;;;;;;;;21.98;38.88;95510.25;2065460;28;1583;-61
2022/05/21 03:43:55;;;;;;;;;;;;;;;21.99;38.79;95515.38;2061363;28;1121;-62
2022/05/21 03:44:58;;;;;;;;;;;;;;;21.99;39.00;95517.25;2060205;28;1572;-61
2022/05/21 03:45:59;;;;;;;;;;;;;;;21.99;38.78;95512.72;2065521;28;1172;-62
2022/05/21 03:47:02;;;;;;;;;;;;;;;22.00;38.70;95517.06;2063399;28;1661;-61
2022/05/21 03:48:05;;;;;;;;;;;;;;;21.99;38.71;95504.69;2065919;28;1030;-61
2022/05/21 03:49:09;;;;;;;;;;;;;;;21.99;38.82;95501.19;2064712;28;1545;-61
2022/05/21 03:50:11;;;;;;;;;;;;;;;21.98;39.00;95516.44;2060076;28;1966;-61
2022/05/21 03:51:14;;;;;;;;;;;;;;;21.99;38.99;95522.59;2057881;28;1081;-62
2022/05/21 03:52:16;;;;;;;;;;;;;;;21.99;38.86;95517.25;2063624;28;1555;-62
2022/05/21 03:53:20;;;;;;;;;;;;;;;21.98;38.69;95521.78;2064944;28;1561;-61
2022/05/21 03:54:23;;;;;;;;;;;;;;;21.98;38.91;95527.13;2062061;28;1601;-62
2022/05/21 03:55:26;;;;;;;;;;;;;;;21.99;38.77;95527.94;2053219;28;1156;-62
2022/05/21 03:56:28;;;;;;;;;;;;;;;21.98;38.77;95524.47;2053102;28;1404;-61
2022/05/21 03:57:30;;;;;;;;;;;;;;;21.98;38.92;95527.13;2064062;28;1607;-61
2022/05/21 03:58:32;;;;;;;;;;;;;;;21.98;39.14;95524.47;2065233;28;1459;-61
2022/05/21 03:59:36;;;;;;;;;;;;;;;22.00;39.56;95533.13;2065245;28;1469;-68
2022/05/21 04:00:39;;;;;;;;;;;;;;;22.06;39.64;95536.81;2063841;28;1638;-65
2022/05/21 04:01:42;;;;;;;;;;;;;;;22.09;39.24;95531.03;2065972;28;1024;-70
2022/05/21 04:02:44;;;;;;;;;;;;;;;22.10;39.19;95533.50;2064738;28;1549;-60
2022/05/21 04:03:48;;;;;;;;;;;;;;;22.08;39.15;95532.91;2058011;28;1545;-60
2022/05/21 04:04:50;;;;;;;;;;;;;;;22.05;39.02;95519.94;2065160;28;1037;-62
2022/05/21 04:05:54;;;;;;;;;;;;;;;22.06;39.11;95529.59;2064423;28;1630;-61
2022/05/21 04:06:56;;;;;;;;;;;;;;;22.05;38.99;95530.63;2059129;28;1658;-59
2022/05/21 04:07:59;;;;;;;;;;;;;;;22.03;38.93;95535.38;2057802;28;1402;-61
2022/05/21 04:09:03;;;;;;;;;;;;;;;22.02;39.01;95536.38;2064691;28;1911;-62
2022/05/21 04:10:06;;;;;;;;;;;;;;;22.02;38.86;95538.25;2063942;28;1906;-62
2022/05/21 04:11:08;;;;;;;;;;;;;;;22.01;38.80;95537.41;2063569;28;1623;-61
2022/05/21 04:12:11;;;;;;;;;;;;;;;22.01;39.09;95541.97;2064712;28;1763;-62
2022/05/21 04:13:13;;;;;;;;;;;;;;;22.01;38.94;95545.44;2064870;28;1596;-62
2022/05/21 04:14:16;;;;;;;;;;;;;;;22.02;38.86;95546.28;2065616;28;1084;-61
2022/05/21 04:15:19;;;;;;;;;;;;;;;22.00;39.02;95549.16;2064199;28;1629;-61
2022/05/21 04:16:22;;;;;;;;;;;;;;;22.01;38.83;95548.13;2065231;28;1104;-61
2022/05/21 04:17:23;;;;;;;;;;;;;;;22.00;38.98;95548.34;2064866;28;2100;-62
2022/05/21 04:18:26;;;;;;;;;;;;;;;22.00;38.82;95551.03;2056437;28;1581;-60
2022/05/21 04:19:29;;;;;;;;;;;;;;;22.00;39.05;95551.84;2057093;28;1056;-62
2022/05/21 04:20:32;;;;;;;;;;;;;;;22.00;38.78;95551.84;2057470;28;1690;-61
2022/05/21 04:21:33;;;;;;;;;;;;;;;22.01;39.13;95556.16;2058320;28;1577;-71
2022/05/21 04:22:36;;;;;;;;;;;;;;;22.01;39.17;95552.66;2065244;28;1168;-61
2022/05/21 04:23:38;;;;;;;;;;;;;;;22.01;39.11;95547.31;2064233;28;1549;-61
2022/05/21 04:24:41;;;;;;;;;;;;;;;22.02;39.13;95557.78;2065433;28;836;-64
2022/05/21 04:25:43;;;;;;;;;;;;;;;22.07;39.06;95554.50;2062680;28;1620;-59
2022/05/21 04:26:52;;;;;;;;;;;;;;;20.96;32.75;95547.75;2063310;28;2098;-73
2022/05/21 04:27:54;;;;;;;;;;;;;;;19.84;34.42;95547.97;2065119;28;1176;-60
2022/05/21 04:28:58;;;;;;;;;;;;;;;19.27;34.65;95552.38;2061386;28;1469;-60
2022/05/21 04:30:00;;;;;;;;;;;;;;;18.84;35.37;95551.50;2052340;28;1681;-60
2022/05/21 04:31:04;;;;;;;;;;;;;;;18.64;36.13;95551.25;2064618;28;1997;-60
2022/05/21 04:32:06;;;;;;;;;;;;;;;18.51;35.95;95547.38;2065370;28;829;-60
2022/05/21 04:33:09;;;;;;;;;;;;;;;18.36;35.83;95549.25;2064985;28;2330;-60
2022/05/21 04:34:12;;;;;;;;;;;;;;;18.28;36.28;95557.31;2064793;28;1693;-60
2022/05/21 04:35:14;;;;;;;;;;;;;;;18.33;35.96;95560.25;2060919;28;1645;-60
2022/05/21 04:36:20;;;;;;;;;;;;;;;18.35;35.90;95560.88;2065039;28;1803;-60
2022/05/21 04:37:23;;;;;;;;;;;;;;;18.28;35.88;95557.31;2065005;28;1597;-68
2022/05/21 04:38:25;;;;;;;;;;;;;;;18.23;35.76;95557.03;2064866;28;974;-60
2022/05/21 04:39:28;;;;;;;;;;;;;;;18.07;36.11;95556.22;2064901;28;1567;-61
2022/05/21 04:40:30;;;;;;;;;;;;;;;17.94;36.28;95550.69;2061235;28;1036;-60
2022/05/21 04:41:34;;;;;;;;;;;;;;;17.91;36.29;95556.38;2058925;28;1435;-60
2022/05/21 04:42:36;;;;;;;;;;;;;;;17.98;36.23;95561.78;2061818;28;1631;-60
2022/05/21 04:43:40;;;;;;;;;;;;;;;17.90;36.28;95557.41;2059877;28;1575;-60
2022/05/21 04:44:42;;;;;;;;;;;;;;;17.76;36.63;95555.53;2060608;28;1458;-60
2022/05/21 04:45:45;;;;;;;;;;;;;;;17.83;36.68;95561.78;2059625;28;1519;-59
2022/05/21 04:46:49;;;;;;;;;;;;;;;17.87;36.75;95555.09;2061047;28;1623;-60
2022/05/21 04:47:51;;;;;;;;;;;;;;;17.87;36.81;95555.09;2064866;28;1537;-59
2022/05/21 04:48:54;;;;;;;;;;;;;;;17.82;37.23;95552.16;2061181;28;1848;-60
2022/05/21 04:50:08;;;;;;;;;;;;;;;17.69;37.10;95557.22;2065447;28;1962;-60
2022/05/21 04:51:10;;;;;;;;;;;;;;;17.70;37.22;95558.88;2064515;28;1962;-60
2022/05/21 04:52:12;;;;;;;;;;;;;;;17.65;37.14;95557.59;2058412;28;1039;-60
2022/05/21 04:53:14;;;;;;;;;;;;;;;17.49;37.46;95552.41;2058887;28;1684;-61
2022/05/21 04:54:17;;;;;;;;;;;;;;;17.36;37.75;95555.69;2064934;28;1889;-60
2022/05/21 04:55:19;;;;;;;;;;;;;;;17.37;37.99;95559.16;2065556;28;1080;-60
2022/05/21 04:56:23;;;;;;;;;;;;;;;17.47;37.89;95556.25;2064671;28;1711;-60
2022/05/21 04:57:40;;;;;;;;;;;;;;;17.48;37.70;95555.25;2059603;28;1551;-60
2022/05/21 04:58:42;;;;;;;;;;;;;;;17.51;37.59;95557.56;2060227;28;1677;-60
2022/05/21 04:59:46;;;;;;;;;;;;;;;17.47;37.77;95554.44;2064698;28;1956;-60
2022/05/21 05:00:54;;;;;;;;;;;;;;;17.47;37.56;95554.44;2064437;28;1981;-59
2022/05/21 05:01:59;;;;;;;;;;;;;;;17.41;37.40;95557.78;2065526;28;1121;-60
2022/05/21 05:03:01;;;;;;;;;;;;;;;17.45;37.50;95556.44;2063827;28;2225;-60
2022/05/21 05:04:03;;;;;;;;;;;;;;;17.41;37.67;95555.97;2051812;28;1207;-59
2022/05/21 05:05:06;;;;;;;;;;;;;;;17.37;37.71;95553.84;2057191;28;1133;-60
2022/05/21 05:06:09;;;;;;;;;;;;;;;17.31;37.73;95557.22;2059063;28;1550;-60
2022/05/21 05:07:12;;;;;;;;;;;;;;;17.47;37.51;95564.22;2064859;28;1656;-59
2022/05/21 05:08:16;;;;;;;;;;;;;;;17.63;37.27;95554.28;2063406;28;1676;-60
2022/05/21 05:09:22;;;;;;;;;;;;;;;17.62;37.21;95563.25;2064529;28;1605;-60
2022/05/21 05:10:25;;;;;;;;;;;;;;;17.61;37.42;95558.13;2065596;28;994;-60
2022/05/21 05:11:27;;;;;;;;;;;;;;;17.31;38.14;95549.25;2064960;28;1907;-60
2022/05/21 05:12:31;;;;;;;;;;;;;;;17.59;37.84;95555.66;2065541;28;1017;-60
2022/05/21 05:13:34;;;;;;;;;;;;;;;18.03;37.00;95554.09;2064729;28;1602;-62
2022/05/21 05:14:37;;;;;;;;;;;;;;;18.28;36.65;95557.31;2053853;28;1638;-59
2022/05/21 05:15:39;;;;;;;;;;;;;;;18.38;36.23;95560.53;2060101;28;1766;-61
2022/05/21 05:16:42;;;;;;;;;;;;;;;18.55;35.75;95553.16;2063908;28;1503;-60
2022/05/21 05:17:46;;;;;;;;;;;;;;;18.65;35.30;95558.22;2059937;28;1387;-60
2022/05/21 05:18:49;;;;;;;;;;;;;;;18.69;35.28;95559.50;2058178;28;1886;-61
2022/05/21 05:19:50;;;;;;;;;;;;;;;18.73;35.40;95556.28;2059988;28;1597;-61
2022/05/21 05:20:53;;;;;;;;;;;;;;;18.76;35.22;95555.91;2064755;28;1427;-60
2022/05/21 05:21:55;;;;;;;;;;;;;;;18.83;35.06;95555.16;2064880;28;1576;-60
2022/05/21 05:22:58;;;;;;;;;;;;;;;18.89;35.09;95549.09;2064286;28;1564;-60
2022/05/21 05:24:01;;;;;;;;;;;;;;;18.93;35.16;95559.19;2064681;28;1549;-60
2022/05/21 05:25:04;;;;;;;;;;;;;;;18.94;35.06;95552.84;2063850;28;2005;-61
2022/05/21 05:26:07;;;;;;;;;;;;;;;18.98;35.09;95554.13;2053931;28;1117;-66
2022/05/21 05:27:09;;;;;;;;;;;;;;;19.03;35.01;95550.06;2054302;28;1339;-61
2022/05/21 05:28:13;;;;;;;;;;;;;;;19.06;35.12;95547.84;2058256;28;1065;-61
2022/05/21 05:29:15;;;;;;;;;;;;;;;18.88;35.74;95542.94;2058457;28;1266;-62
2022/05/21 05:30:19;;;;;;;;;;;;;;;18.96;35.50;95556.16;2058204;28;1036;-61
2022/05/21 05:31:21;;;;;;;;;;;;;;;18.60;35.84;95544.63;2058899;28;1906;-60
2022/05/21 05:32:24;;;;;;;;;;;;;;;18.65;36.95;95548.41;2059035;28;1014;-68
2022/05/21 05:33:30;;;;;;;;;;;;;;;18.60;36.54;95541.97;2058666;28;1117;-61
2022/05/21 05:34:32;;;;;;;;;;;;;;;18.40;36.77;95544.38;2058921;28;1109;-59
2022/05/21 05:35:35;;;;;;;;;;;;;;;18.38;37.05;95546.38;2059050;28;1093;-60
2022/05/21 05:36:36;;;;;;;;;;;;;;;18.27;36.93;95537.06;2059034;28;1038;-59
2022/05/21 05:37:39;;;;;;;;;;;;;;;18.24;36.92;95538.25;2051934;28;1032;-59
2022/05/21 05:38:42;;;;;;;;;;;;;;;18.36;36.86;95535.94;2057463;28;1033;-59
2022/05/21 05:39:44;;;;;;;;;;;;;;;18.54;36.81;95533.72;2058796;28;1270;-58
2022/05/21 05:40:49;;;;;;;;;;;;;;;18.66;36.57;95536.75;2058865;28;1089;-59